createdAt,value
2023-04-01T00:01:16.197Z,10.00
2023-04-01T00:04:19.450Z,9.98
2023-04-01T00:07:22.278Z,9.95
2023-04-01T00:10:25.578Z,10.00
2023-04-01T00:13:28.624Z,9.98
2023-04-01T00:16:32.221Z,9.95
2023-04-01T00:19:35.145Z,10.06
2023-04-01T00:22:38.575Z,9.88
2023-04-01T00:25:41.432Z,9.74
2023-04-01T00:28:44.520Z,9.72
2023-04-01T00:31:47.336Z,9.73
2023-04-01T00:34:54.292Z,9.71
2023-04-01T00:37:57.192Z,9.63
2023-04-01T00:41:01.225Z,9.67
2023-04-01T00:44:19.738Z,9.69
2023-04-01T00:47:25.525Z,9.70
2023-04-01T00:50:30.177Z,9.59
2023-04-01T00:53:34.585Z,9.59
2023-04-01T00:56:50.007Z,9.56
2023-04-01T00:59:56.052Z,9.56
2023-04-01T01:02:59.862Z,9.49
2023-04-01T01:06:11.960Z,9.53
2023-04-01T01:09:27.275Z,9.62
2023-04-01T01:12:39.936Z,9.54
2023-04-01T01:15:47.628Z,9.50
2023-04-01T01:19:06.248Z,9.49
2023-04-01T01:22:33.687Z,9.56
2023-04-01T01:26:00.631Z,9.55
2023-04-01T01:29:18.433Z,9.48
2023-04-01T01:32:27.385Z,9.55
2023-04-01T01:35:53.519Z,9.49
2023-04-01T01:38:58.157Z,9.49
2023-04-01T01:42:06.014Z,9.43
2023-04-01T01:45:11.786Z,9.20
2023-04-01T01:48:16.441Z,9.03
2023-04-01T01:51:21.505Z,8.83
2023-04-01T01:54:24.500Z,8.86
2023-04-01T01:57:34.635Z,8.81
2023-04-01T02:00:38.998Z,8.68
2023-04-01T02:03:44.310Z,8.59
2023-04-01T02:06:56.998Z,8.54
2023-04-01T02:10:01.092Z,8.76
2023-04-01T02:13:10.973Z,8.71
2023-04-01T02:16:22.219Z,8.75
2023-04-01T02:19:34.982Z,8.99
2023-04-01T02:22:47.519Z,9.14
2023-04-01T02:25:50.502Z,9.24
2023-04-01T02:28:56.051Z,9.25
2023-04-01T02:32:00.166Z,9.33
2023-04-01T02:35:07.045Z,9.34
2023-04-01T02:38:10.241Z,9.05
2023-04-01T02:41:13.617Z,8.84
2023-04-01T02:44:17.291Z,8.82
2023-04-01T02:47:20.432Z,8.66
2023-04-01T02:50:23.280Z,8.40
2023-04-01T02:53:26.382Z,8.70
2023-04-01T02:56:29.180Z,8.66
2023-04-01T02:59:32.304Z,8.43
2023-04-01T03:02:35.144Z,8.28
2023-04-01T03:05:38.298Z,8.44
2023-04-01T03:08:41.488Z,8.40
2023-04-01T03:11:44.873Z,8.27
2023-04-01T03:14:47.762Z,8.20
2023-04-01T03:17:51.023Z,8.36
2023-04-01T03:20:53.916Z,8.58
2023-04-01T03:23:57.049Z,8.60
2023-04-01T03:26:59.832Z,8.48
2023-04-01T03:30:04.850Z,8.48
2023-04-01T03:33:10.173Z,8.45
2023-04-01T03:36:14.043Z,8.36
2023-04-01T03:39:19.788Z,8.31
2023-04-01T03:42:23.374Z,8.26
2023-04-01T03:45:26.122Z,8.12
2023-04-01T03:48:29.102Z,8.14
2023-04-01T03:51:31.930Z,8.36
2023-04-01T03:54:35.262Z,8.31
2023-04-01T03:57:38.063Z,8.52
2023-04-01T04:00:41.894Z,8.30
2023-04-01T04:03:45.874Z,8.23
2023-04-01T04:06:49.329Z,8.47
2023-04-01T04:09:52.748Z,8.54
2023-04-01T04:12:55.481Z,8.45
2023-04-01T04:15:59.785Z,8.55
2023-04-01T04:19:03.217Z,8.84
2023-04-01T04:22:06.279Z,8.62
2023-04-01T04:25:09.998Z,8.69
2023-04-01T04:28:13.312Z,8.35
2023-04-01T04:31:23.651Z,8.39
2023-04-01T04:34:26.855Z,8.02
2023-04-01T04:37:29.624Z,7.88
2023-04-01T04:40:32.793Z,7.84
2023-04-01T04:43:35.600Z,7.80
2023-04-01T04:46:40.494Z,7.78
2023-04-01T04:49:47.422Z,7.78
2023-04-01T04:52:50.518Z,7.79
2023-04-01T04:55:54.324Z,7.64
2023-04-01T04:58:58.648Z,7.60
2023-04-01T05:02:02.411Z,7.62
2023-04-01T05:05:06.293Z,7.69
2023-04-01T05:08:09.123Z,7.81
2023-04-01T05:11:18.483Z,8.03
2023-04-01T05:14:21.349Z,8.23
2023-04-01T05:17:25.040Z,8.40
2023-04-01T05:20:28.351Z,8.73
2023-04-01T05:23:33.316Z,8.89
2023-04-01T05:26:36.356Z,9.47
2023-04-01T05:29:39.436Z,9.68
2023-04-01T05:32:42.671Z,9.66
2023-04-01T05:35:45.869Z,9.52
2023-04-01T05:38:49.047Z,9.61
2023-04-01T05:41:53.062Z,9.51
2023-04-01T05:44:56.839Z,9.53
2023-04-01T05:48:06.892Z,9.61
2023-04-01T05:51:17.421Z,9.86
2023-04-01T05:54:21.357Z,10.08
2023-04-01T05:57:24.351Z,10.15
2023-04-01T06:00:27.595Z,10.20
2023-04-01T06:03:31.699Z,10.32
2023-04-01T06:06:41.165Z,10.41
2023-04-01T06:09:45.840Z,10.36
2023-04-01T06:12:54.671Z,10.28
2023-04-01T06:16:35.494Z,10.30
2023-04-01T06:19:43.972Z,10.43
2023-04-01T06:23:06.233Z,10.53
2023-04-01T06:26:21.618Z,10.62
2023-04-01T06:29:41.880Z,10.78
2023-04-01T06:33:12.714Z,10.73
2023-04-01T06:36:51.734Z,10.77
2023-04-01T06:40:31.975Z,10.87
2023-04-01T06:44:20.067Z,10.95
2023-04-01T06:47:57.686Z,10.98
2023-04-01T06:51:12.892Z,11.17
2023-04-01T06:54:36.221Z,11.66
2023-04-01T06:57:48.345Z,12.01
2023-04-01T07:00:56.187Z,11.95
2023-04-01T07:04:17.754Z,11.98
2023-04-01T07:07:36.266Z,12.21
2023-04-01T07:11:05.391Z,12.23
2023-04-01T07:14:31.585Z,12.20
2023-04-01T07:17:39.941Z,11.89
2023-04-01T07:20:42.838Z,11.76
2023-04-01T07:23:47.544Z,11.72
2023-04-01T07:26:58.317Z,11.74
2023-04-01T07:30:14.101Z,11.57
2023-04-01T07:33:26.513Z,11.41
2023-04-01T07:36:41.266Z,11.43
2023-04-01T07:39:56.409Z,11.31
2023-04-01T07:43:17.922Z,11.38
2023-04-01T07:46:52.167Z,11.47
2023-04-01T07:50:22.854Z,11.56
2023-04-01T07:53:34.119Z,11.72
2023-04-01T07:56:51.364Z,11.89
2023-04-01T08:00:36.738Z,12.03
2023-04-01T08:03:54.256Z,12.05
2023-04-01T08:07:21.757Z,11.95
2023-04-01T08:10:47.638Z,11.95
2023-04-01T08:14:28.276Z,11.95
2023-04-01T08:17:58.957Z,11.99
2023-04-01T08:21:18.245Z,11.96
2023-04-01T08:24:47.987Z,11.86
2023-04-01T08:28:01.424Z,12.00
2023-04-01T08:31:10.475Z,12.14
2023-04-01T08:34:27.387Z,12.15
2023-04-01T08:37:38.031Z,12.31
2023-04-01T08:41:00.424Z,12.57
2023-04-01T08:44:42.532Z,12.92
2023-04-01T08:47:53.929Z,13.07
2023-04-01T08:51:21.890Z,13.01
2023-04-01T08:54:47.668Z,13.22
2023-04-01T08:58:28.371Z,13.34
2023-04-01T09:01:40.000Z,13.42
2023-04-01T09:05:18.145Z,13.76
2023-04-01T09:08:54.427Z,13.87
2023-04-01T09:12:14.058Z,13.81
2023-04-01T09:15:38.712Z,14.10
2023-04-01T09:19:11.064Z,14.19
2023-04-01T09:22:35.047Z,14.22
2023-04-01T09:25:52.949Z,14.17
2023-04-01T09:29:31.000Z,14.27
2023-04-01T09:32:52.848Z,14.20
2023-04-01T09:36:25.231Z,14.28
2023-04-01T09:39:38.864Z,14.27
2023-04-01T09:43:06.558Z,14.53
2023-04-01T09:46:20.585Z,14.49
2023-04-01T09:50:08.044Z,14.32
2023-04-01T09:53:11.253Z,14.35
2023-04-01T09:56:14.190Z,14.35
2023-04-01T09:59:39.520Z,14.37
2023-04-01T10:03:22.085Z,14.61
2023-04-01T10:06:46.940Z,14.44
2023-04-01T10:10:08.213Z,14.41
2023-04-01T10:13:49.518Z,14.72
2023-04-01T10:16:58.655Z,15.23
2023-04-01T10:20:29.677Z,15.59
2023-04-01T10:23:32.785Z,15.70
2023-04-01T10:26:54.493Z,15.94
2023-04-01T10:30:25.088Z,15.77
2023-04-01T10:33:54.227Z,15.55
2023-04-01T10:37:22.291Z,15.56
2023-04-01T10:40:43.487Z,15.24
2023-04-01T10:43:56.587Z,14.94
2023-04-01T10:47:11.778Z,14.66
2023-04-01T10:50:47.341Z,14.54
2023-04-01T10:54:22.848Z,14.44
2023-04-01T10:57:53.276Z,14.43
2023-04-01T11:01:30.755Z,14.28
2023-04-01T11:05:11.188Z,14.23
2023-04-01T11:08:34.166Z,14.13
2023-04-01T11:11:39.972Z,14.33
2023-04-01T11:15:21.627Z,14.59
2023-04-01T11:18:49.908Z,15.20
2023-04-01T11:22:30.532Z,15.38
2023-04-01T11:26:06.693Z,15.19
2023-04-01T11:29:31.112Z,14.83
2023-04-01T11:32:44.031Z,14.57
2023-04-01T11:36:02.145Z,14.42
2023-04-01T11:39:23.048Z,14.20
2023-04-01T11:42:56.450Z,14.05
2023-04-01T11:46:13.698Z,14.01
2023-04-01T11:49:58.358Z,13.92
2023-04-01T11:53:12.256Z,13.94
2023-04-01T11:56:21.683Z,14.01
2023-04-01T11:59:44.132Z,14.18
2023-04-01T12:03:12.199Z,14.40
2023-04-01T12:06:24.638Z,14.62
2023-04-01T12:09:36.733Z,14.78
2023-04-01T12:13:02.084Z,14.84
2023-04-01T12:16:23.598Z,14.67
2023-04-01T12:19:54.630Z,14.44
2023-04-01T12:23:20.315Z,14.40
2023-04-01T12:26:30.054Z,14.35
2023-04-01T12:29:51.624Z,14.19
2023-04-01T12:33:04.899Z,14.19
2023-04-01T12:36:15.305Z,14.04
2023-04-01T12:39:43.616Z,13.99
2023-04-01T12:42:58.407Z,14.03
2023-04-01T12:46:13.482Z,14.13
2023-04-01T12:49:19.296Z,14.31
2023-04-01T12:52:47.493Z,14.37
2023-04-01T12:55:53.780Z,14.57
2023-04-01T12:59:21.938Z,14.75
2023-04-01T13:02:33.531Z,14.92
2023-04-01T13:06:07.195Z,14.80
2023-04-01T13:09:24.523Z,14.53
2023-04-01T13:13:10.110Z,14.22
2023-04-01T13:16:17.653Z,14.11
2023-04-01T13:19:38.926Z,14.22
2023-04-01T13:23:07.401Z,14.37
2023-04-01T13:26:14.167Z,14.51
2023-04-01T13:29:34.685Z,14.61
2023-04-01T13:32:47.630Z,14.88
2023-04-01T13:36:09.070Z,15.01
2023-04-01T13:39:31.136Z,15.25
2023-04-01T13:42:41.466Z,15.71
2023-04-01T13:46:02.845Z,16.03
2023-04-01T13:49:36.428Z,16.02
2023-04-01T13:52:51.765Z,16.13
2023-04-01T13:56:07.041Z,16.18
2023-04-01T13:59:37.692Z,16.25
2023-04-01T14:03:02.350Z,16.37
2023-04-01T14:06:17.205Z,16.24
2023-04-01T14:09:29.246Z,16.37
2023-04-01T14:12:49.327Z,16.26
2023-04-01T14:15:52.671Z,15.93
2023-04-01T14:19:01.702Z,15.80
2023-04-01T14:22:29.330Z,16.04
2023-04-01T14:26:09.584Z,16.71
2023-04-01T14:29:29.083Z,17.01
2023-04-01T14:32:47.858Z,17.15
2023-04-01T14:35:50.470Z,17.23
2023-04-01T14:39:18.478Z,17.28
2023-04-01T14:42:40.473Z,17.38
2023-04-01T14:46:14.573Z,17.22
2023-04-01T14:49:40.899Z,17.23
2023-04-01T14:53:11.068Z,17.32
2023-04-01T14:56:15.159Z,16.92
2023-04-01T14:59:23.960Z,17.17
2023-04-01T15:02:47.572Z,17.24
2023-04-01T15:05:57.416Z,17.33
2023-04-01T15:09:34.023Z,17.15
2023-04-01T15:12:58.718Z,16.73
2023-04-01T15:16:09.550Z,16.57
2023-04-01T15:19:51.698Z,16.37
2023-04-01T15:23:23.210Z,16.57
2023-04-01T15:26:44.903Z,16.33
2023-04-01T15:30:02.881Z,16.38
2023-04-01T15:33:24.266Z,16.37
2023-04-01T15:36:31.960Z,16.29
2023-04-01T15:39:53.179Z,16.12
2023-04-01T15:43:29.953Z,15.94
2023-04-01T15:46:45.703Z,15.63
2023-04-01T15:49:55.121Z,15.39
2023-04-01T15:53:23.935Z,15.31
2023-04-01T15:56:30.916Z,15.12
2023-04-01T16:00:08.913Z,15.02
2023-04-01T16:03:24.819Z,14.93
2023-04-01T16:07:11.222Z,14.79
2023-04-01T16:10:44.530Z,14.67
2023-04-01T16:14:08.946Z,14.63
2023-04-01T16:17:51.282Z,14.51
2023-04-01T16:21:13.644Z,14.41
2023-04-01T16:24:35.850Z,14.34
2023-04-01T16:27:53.394Z,14.22
2023-04-01T16:31:26.561Z,14.16
2023-04-01T16:34:45.180Z,14.07
2023-04-01T16:38:00.667Z,14.00
2023-04-01T16:41:04.149Z,13.88
2023-04-01T16:44:15.085Z,13.79
2023-04-01T16:47:22.831Z,13.68
2023-04-01T16:50:40.606Z,13.55
2023-04-01T16:53:49.784Z,13.43
2023-04-01T16:57:03.602Z,13.29
2023-04-01T17:00:24.207Z,13.22
2023-04-01T17:03:37.458Z,13.11
2023-04-01T17:06:43.844Z,12.96
2023-04-01T17:10:26.162Z,12.79
2023-04-01T17:13:46.620Z,12.64
2023-04-01T17:17:10.730Z,12.48
2023-04-01T17:20:39.343Z,12.40
2023-04-01T17:24:12.548Z,12.28
2023-04-01T17:27:22.857Z,12.16
2023-04-01T17:30:44.613Z,12.08
2023-04-01T17:34:00.192Z,11.98
2023-04-01T17:37:22.346Z,11.91
2023-04-01T17:40:58.972Z,11.82
2023-04-01T17:44:59.726Z,11.83
2023-04-01T17:48:03.724Z,11.82
2023-04-01T17:51:31.293Z,11.99
2023-04-01T17:54:48.172Z,12.10
2023-04-01T17:58:04.713Z,12.00
2023-04-01T18:01:32.945Z,11.85
2023-04-01T18:05:14.175Z,11.70
2023-04-01T18:08:40.286Z,11.62
2023-04-01T18:12:03.201Z,11.28
2023-04-01T18:15:33.607Z,10.98
2023-04-01T18:19:02.800Z,10.81
2023-04-01T18:22:22.975Z,10.74
2023-04-01T18:25:50.415Z,10.73
2023-04-01T18:29:05.455Z,10.70
2023-04-01T18:32:13.700Z,10.68
2023-04-01T18:35:18.339Z,10.53
2023-04-01T18:38:35.979Z,10.46
2023-04-01T18:41:46.395Z,10.17
2023-04-01T18:45:25.000Z,9.96
2023-04-01T18:48:39.879Z,9.69
2023-04-01T18:51:55.640Z,9.51
2023-04-01T18:55:03.032Z,9.68
2023-04-01T18:58:37.174Z,9.71
2023-04-01T19:02:06.808Z,9.63
2023-04-01T19:05:18.990Z,9.51
2023-04-01T19:08:26.988Z,9.45
2023-04-01T19:11:46.784Z,9.63
2023-04-01T19:15:17.726Z,9.62
2023-04-01T19:18:35.686Z,9.69
2023-04-01T19:22:01.244Z,9.57
2023-04-01T19:25:30.144Z,9.64
2023-04-01T19:28:55.046Z,9.79
2023-04-01T19:32:24.016Z,9.88
2023-04-01T19:35:34.284Z,9.78
2023-04-01T19:38:39.566Z,9.86
2023-04-01T19:42:05.436Z,9.82
2023-04-01T19:45:34.077Z,9.88
2023-04-01T19:48:55.582Z,9.72
2023-04-01T19:52:14.567Z,9.75
2023-04-01T19:55:49.105Z,9.67
2023-04-01T19:59:25.888Z,9.41
2023-04-01T20:02:52.702Z,9.63
2023-04-01T20:06:08.033Z,9.57
2023-04-01T20:09:47.121Z,9.75
2023-04-01T20:13:24.800Z,9.72
2023-04-01T20:16:50.712Z,9.72
2023-04-01T20:20:01.112Z,9.72
2023-04-01T20:23:13.615Z,9.79
2023-04-01T20:26:23.773Z,9.86
2023-04-01T20:30:08.850Z,9.92
2023-04-01T20:33:27.841Z,9.82
2023-04-01T20:36:58.410Z,9.84
2023-04-01T20:40:32.177Z,9.96
2023-04-01T20:44:04.366Z,10.10
2023-04-01T20:47:22.752Z,10.06
2023-04-01T20:50:26.135Z,10.05
2023-04-01T20:53:36.650Z,10.06
2023-04-01T20:56:49.559Z,9.95
2023-04-01T21:00:01.628Z,10.12
2023-04-01T21:03:13.246Z,10.16
2023-04-01T21:06:39.829Z,10.01
2023-04-01T21:10:22.576Z,9.78
2023-04-01T21:13:35.225Z,9.79
2023-04-01T21:16:51.673Z,10.03
2023-04-01T21:20:05.323Z,9.97
2023-04-01T21:23:26.697Z,9.83
2023-04-01T21:26:38.514Z,9.77
2023-04-01T21:30:04.921Z,9.60
2023-04-01T21:33:26.642Z,9.64
2023-04-01T21:36:40.957Z,9.64
2023-04-01T21:39:53.532Z,9.66
2023-04-01T21:43:11.357Z,9.79
2023-04-01T21:46:39.371Z,9.72
2023-04-01T21:49:47.897Z,9.81
2023-04-01T21:53:06.312Z,9.86
2023-04-01T21:56:34.283Z,9.64
2023-04-01T21:59:43.374Z,9.74
2023-04-01T22:03:23.921Z,9.76
2023-04-01T22:06:48.654Z,9.88
2023-04-01T22:10:18.744Z,9.94
2023-04-01T22:13:37.301Z,9.77
2023-04-01T22:16:59.376Z,9.75
2023-04-01T22:20:33.282Z,9.72
2023-04-01T22:23:57.427Z,9.71
2023-04-01T22:27:21.987Z,9.75
2023-04-01T22:30:29.869Z,9.63
2023-04-01T22:33:45.129Z,9.61
2023-04-01T22:37:28.674Z,9.54
2023-04-01T22:40:38.931Z,9.57
2023-04-01T22:43:44.442Z,9.66
2023-04-01T22:47:16.291Z,9.72
2023-04-01T22:50:31.037Z,9.77
2023-04-01T22:53:52.815Z,9.83
2023-04-01T22:57:14.590Z,10.02
2023-04-01T23:00:26.333Z,10.06
2023-04-01T23:03:52.080Z,10.01
2023-04-01T23:07:01.825Z,10.03
2023-04-01T23:10:12.292Z,10.00
2023-04-01T23:13:22.832Z,10.02
2023-04-01T23:16:45.948Z,10.04
2023-04-01T23:20:28.625Z,10.13
2023-04-01T23:23:52.443Z,9.99
2023-04-01T23:27:04.766Z,9.93
2023-04-01T23:30:35.257Z,9.97
2023-04-01T23:33:38.455Z,9.90
2023-04-01T23:36:47.836Z,9.89
2023-04-01T23:39:59.251Z,9.87
2023-04-01T23:43:02.159Z,9.83
2023-04-01T23:46:08.599Z,9.79
2023-04-01T23:49:18.450Z,9.87
2023-04-01T23:52:43.989Z,9.87
2023-04-01T23:55:47.859Z,9.82
2023-04-01T23:58:57.730Z,9.79
